sensor_id;sensor_type;location;lat;lon;timestamp;P1;durP1;ratioP1;P2;durP2;ratioP2
16775;SDS011;8505;49.456;8.164;2023-09-19T00:00:35;4.32;;;1.50;;
16775;SDS011;8505;49.456;8.164;2023-09-19T00:03:03;4.40;;;1.48;;
16775;SDS011;8505;49.456;8.164;2023-09-19T00:05:33;3.30;;;1.50;;
16775;SDS011;8505;49.456;8.164;2023-09-19T00:08:02;2.97;;;1.40;;
16775;SDS011;8505;49.456;8.164;2023-09-19T00:10:31;3.50;;;1.38;;
16775;SDS011;8505;49.456;8.164;2023-09-19T00:13:01;4.53;;;1.63;;
16775;SDS011;8505;49.456;8.164;2023-09-19T00:15:37;3.38;;;1.60;;
16775;SDS011;8505;49.456;8.164;2023-09-19T00:18:06;4.20;;;1.27;;
16775;SDS011;8505;49.456;8.164;2023-09-19T00:20:35;4.10;;;1.50;;
16775;SDS011;8505;49.456;8.164;2023-09-19T00:23:05;4.13;;;1.40;;
16775;SDS011;8505;49.456;8.164;2023-09-19T00:25:34;3.05;;;1.45;;
16775;SDS011;8505;49.456;8.164;2023-09-19T00:28:03;5.88;;;1.60;;
16775;SDS011;8505;49.456;8.164;2023-09-19T00:30:36;3.88;;;1.40;;
16775;SDS011;8505;49.456;8.164;2023-09-19T00:33:05;3.90;;;1.50;;
16775;SDS011;8505;49.456;8.164;2023-09-19T00:35:34;5.15;;;1.70;;
16775;SDS011;8505;49.456;8.164;2023-09-19T00:38:03;5.70;;;1.60;;
16775;SDS011;8505;49.456;8.164;2023-09-19T00:40:33;4.38;;;1.42;;
16775;SDS011;8505;49.456;8.164;2023-09-19T00:43:01;4.63;;;1.30;;
16775;SDS011;8505;49.456;8.164;2023-09-19T00:45:30;3.83;;;1.40;;
16775;SDS011;8505;49.456;8.164;2023-09-19T00:47:59;3.40;;;1.40;;
16775;SDS011;8505;49.456;8.164;2023-09-19T00:50:30;3.87;;;1.40;;
16775;SDS011;8505;49.456;8.164;2023-09-19T00:52:58;5.00;;;1.52;;
16775;SDS011;8505;49.456;8.164;2023-09-19T00:55:27;3.97;;;1.50;;
16775;SDS011;8505;49.456;8.164;2023-09-19T00:57:59;4.22;;;1.40;;
16775;SDS011;8505;49.456;8.164;2023-09-19T01:00:27;3.40;;;1.70;;
16775;SDS011;8505;49.456;8.164;2023-09-19T01:02:59;3.47;;;1.40;;
16775;SDS011;8505;49.456;8.164;2023-09-19T01:05:28;4.55;;;1.60;;
16775;SDS011;8505;49.456;8.164;2023-09-19T01:07:56;2.95;;;1.40;;
16775;SDS011;8505;49.456;8.164;2023-09-19T01:10:25;4.32;;;1.48;;
16775;SDS011;8505;49.456;8.164;2023-09-19T01:12:54;4.32;;;1.67;;
16775;SDS011;8505;49.456;8.164;2023-09-19T01:15:44;4.50;;;1.60;;
16775;SDS011;8505;49.456;8.164;2023-09-19T01:18:24;4.93;;;1.70;;
16775;SDS011;8505;49.456;8.164;2023-09-19T01:21:02;6.55;;;1.83;;
16775;SDS011;8505;49.456;8.164;2023-09-19T01:23:39;6.05;;;1.85;;
16775;SDS011;8505;49.456;8.164;2023-09-19T01:26:36;6.05;;;1.58;;
16775;SDS011;8505;49.456;8.164;2023-09-19T01:29:26;5.38;;;1.80;;
16775;SDS011;8505;49.456;8.164;2023-09-19T01:32:07;4.70;;;1.60;;
16775;SDS011;8505;49.456;8.164;2023-09-19T01:34:46;3.38;;;1.45;;
16775;SDS011;8505;49.456;8.164;2023-09-19T01:37:17;5.97;;;1.50;;
16775;SDS011;8505;49.456;8.164;2023-09-19T01:39:47;4.80;;;1.67;;
16775;SDS011;8505;49.456;8.164;2023-09-19T01:42:21;3.30;;;1.40;;
16775;SDS011;8505;49.456;8.164;2023-09-19T01:45:01;4.30;;;1.35;;
16775;SDS011;8505;49.456;8.164;2023-09-19T01:47:35;5.68;;;1.50;;
16775;SDS011;8505;49.456;8.164;2023-09-19T01:50:15;4.70;;;1.60;;
16775;SDS011;8505;49.456;8.164;2023-09-19T01:52:51;3.85;;;1.50;;
16775;SDS011;8505;49.456;8.164;2023-09-19T01:55:24;4.15;;;1.70;;
16775;SDS011;8505;49.456;8.164;2023-09-19T01:57:58;3.70;;;1.70;;
16775;SDS011;8505;49.456;8.164;2023-09-19T02:00:32;3.95;;;1.48;;
16775;SDS011;8505;49.456;8.164;2023-09-19T02:03:03;3.63;;;1.52;;
16775;SDS011;8505;49.456;8.164;2023-09-19T02:05:31;2.73;;;1.70;;
16775;SDS011;8505;49.456;8.164;2023-09-19T02:08:00;3.47;;;1.77;;
16775;SDS011;8505;49.456;8.164;2023-09-19T02:10:27;3.90;;;2.10;;
16775;SDS011;8505;49.456;8.164;2023-09-19T02:12:55;4.38;;;1.85;;
16775;SDS011;8505;49.456;8.164;2023-09-19T02:15:24;3.78;;;1.80;;
16775;SDS011;8505;49.456;8.164;2023-09-19T02:17:52;4.55;;;2.10;;
16775;SDS011;8505;49.456;8.164;2023-09-19T02:20:21;4.47;;;2.15;;
16775;SDS011;8505;49.456;8.164;2023-09-19T02:22:49;4.70;;;2.20;;
16775;SDS011;8505;49.456;8.164;2023-09-19T02:25:18;4.28;;;2.10;;
16775;SDS011;8505;49.456;8.164;2023-09-19T02:27:46;3.67;;;2.00;;
16775;SDS011;8505;49.456;8.164;2023-09-19T02:30:14;4.70;;;2.30;;
16775;SDS011;8505;49.456;8.164;2023-09-19T02:32:44;4.18;;;2.38;;
16775;SDS011;8505;49.456;8.164;2023-09-19T02:35:12;5.32;;;2.65;;
16775;SDS011;8505;49.456;8.164;2023-09-19T02:37:42;4.60;;;2.67;;
16775;SDS011;8505;49.456;8.164;2023-09-19T02:40:11;5.47;;;2.55;;
16775;SDS011;8505;49.456;8.164;2023-09-19T02:42:46;6.28;;;3.17;;
16775;SDS011;8505;49.456;8.164;2023-09-19T02:45:15;4.88;;;2.85;;
16775;SDS011;8505;49.456;8.164;2023-09-19T02:47:45;6.07;;;3.17;;
16775;SDS011;8505;49.456;8.164;2023-09-19T02:50:13;4.88;;;3.20;;
16775;SDS011;8505;49.456;8.164;2023-09-19T02:52:43;5.23;;;3.00;;
16775;SDS011;8505;49.456;8.164;2023-09-19T02:55:14;6.13;;;3.42;;
16775;SDS011;8505;49.456;8.164;2023-09-19T02:57:45;6.32;;;3.20;;
16775;SDS011;8505;49.456;8.164;2023-09-19T03:00:14;7.00;;;3.33;;
16775;SDS011;8505;49.456;8.164;2023-09-19T03:02:43;5.65;;;3.20;;
16775;SDS011;8505;49.456;8.164;2023-09-19T03:05:12;6.28;;;3.22;;
16775;SDS011;8505;49.456;8.164;2023-09-19T03:07:41;5.55;;;3.35;;
16775;SDS011;8505;49.456;8.164;2023-09-19T03:10:11;5.38;;;2.95;;
16775;SDS011;8505;49.456;8.164;2023-09-19T03:12:38;6.47;;;3.17;;
16775;SDS011;8505;49.456;8.164;2023-09-19T03:15:07;6.40;;;3.17;;
16775;SDS011;8505;49.456;8.164;2023-09-19T03:17:36;5.03;;;3.03;;
16775;SDS011;8505;49.456;8.164;2023-09-19T03:20:04;6.43;;;3.38;;
16775;SDS011;8505;49.456;8.164;2023-09-19T03:22:35;5.70;;;2.60;;
16775;SDS011;8505;49.456;8.164;2023-09-19T03:25:03;7.60;;;3.28;;
16775;SDS011;8505;49.456;8.164;2023-09-19T03:27:38;6.07;;;2.95;;
16775;SDS011;8505;49.456;8.164;2023-09-19T03:30:07;8.45;;;2.92;;
16775;SDS011;8505;49.456;8.164;2023-09-19T03:32:35;5.25;;;2.67;;
16775;SDS011;8505;49.456;8.164;2023-09-19T03:35:03;5.30;;;2.90;;
16775;SDS011;8505;49.456;8.164;2023-09-19T03:37:32;4.90;;;2.67;;
16775;SDS011;8505;49.456;8.164;2023-09-19T03:40:00;7.53;;;2.77;;
16775;SDS011;8505;49.456;8.164;2023-09-19T03:42:31;6.13;;;2.72;;
16775;SDS011;8505;49.456;8.164;2023-09-19T03:45:04;6.20;;;2.75;;
16775;SDS011;8505;49.456;8.164;2023-09-19T03:47:33;6.47;;;2.90;;
16775;SDS011;8505;49.456;8.164;2023-09-19T03:50:00;6.70;;;3.03;;
16775;SDS011;8505;49.456;8.164;2023-09-19T03:52:29;5.80;;;2.80;;
16775;SDS011;8505;49.456;8.164;2023-09-19T03:54:57;7.90;;;3.00;;
16775;SDS011;8505;49.456;8.164;2023-09-19T03:57:25;7.18;;;3.05;;
16775;SDS011;8505;49.456;8.164;2023-09-19T03:59:53;7.30;;;2.90;;
16775;SDS011;8505;49.456;8.164;2023-09-19T04:02:23;7.00;;;3.00;;
16775;SDS011;8505;49.456;8.164;2023-09-19T04:04:51;6.53;;;2.45;;
16775;SDS011;8505;49.456;8.164;2023-09-19T04:07:19;6.73;;;2.60;;
16775;SDS011;8505;49.456;8.164;2023-09-19T04:09:49;6.80;;;2.95;;
16775;SDS011;8505;49.456;8.164;2023-09-19T04:12:19;7.90;;;2.50;;
16775;SDS011;8505;49.456;8.164;2023-09-19T04:14:46;6.72;;;2.80;;
16775;SDS011;8505;49.456;8.164;2023-09-19T04:17:15;6.25;;;2.70;;
16775;SDS011;8505;49.456;8.164;2023-09-19T04:19:44;5.78;;;2.42;;
16775;SDS011;8505;49.456;8.164;2023-09-19T04:22:12;7.07;;;2.65;;
16775;SDS011;8505;49.456;8.164;2023-09-19T04:24:40;6.18;;;2.40;;
16775;SDS011;8505;49.456;8.164;2023-09-19T04:27:07;5.40;;;2.40;;
16775;SDS011;8505;49.456;8.164;2023-09-19T04:29:36;6.13;;;2.27;;
16775;SDS011;8505;49.456;8.164;2023-09-19T04:32:04;5.20;;;2.30;;
16775;SDS011;8505;49.456;8.164;2023-09-19T04:34:32;9.43;;;2.60;;
16775;SDS011;8505;49.456;8.164;2023-09-19T04:37:02;7.15;;;2.30;;
16775;SDS011;8505;49.456;8.164;2023-09-19T04:39:30;9.25;;;2.30;;
16775;SDS011;8505;49.456;8.164;2023-09-19T04:41:58;6.43;;;2.10;;
16775;SDS011;8505;49.456;8.164;2023-09-19T04:44:25;6.43;;;2.10;;
16775;SDS011;8505;49.456;8.164;2023-09-19T04:46:54;5.90;;;2.03;;
16775;SDS011;8505;49.456;8.164;2023-09-19T04:49:22;7.80;;;2.17;;
16775;SDS011;8505;49.456;8.164;2023-09-19T04:51:50;5.32;;;2.10;;
16775;SDS011;8505;49.456;8.164;2023-09-19T04:54:19;5.47;;;2.22;;
16775;SDS011;8505;49.456;8.164;2023-09-19T04:56:46;6.30;;;2.35;;
16775;SDS011;8505;49.456;8.164;2023-09-19T04:59:14;5.00;;;2.30;;
16775;SDS011;8505;49.456;8.164;2023-09-19T05:01:42;5.82;;;1.90;;
16775;SDS011;8505;49.456;8.164;2023-09-19T05:04:10;6.75;;;2.60;;
16775;SDS011;8505;49.456;8.164;2023-09-19T05:06:38;8.30;;;2.85;;
16775;SDS011;8505;49.456;8.164;2023-09-19T05:09:06;8.15;;;3.08;;
16775;SDS011;8505;49.456;8.164;2023-09-19T05:11:35;7.05;;;2.70;;
16775;SDS011;8505;49.456;8.164;2023-09-19T05:14:04;7.60;;;2.90;;
16775;SDS011;8505;49.456;8.164;2023-09-19T05:16:32;7.38;;;2.28;;
16775;SDS011;8505;49.456;8.164;2023-09-19T05:19:00;6.27;;;2.10;;
16775;SDS011;8505;49.456;8.164;2023-09-19T05:21:28;7.00;;;1.98;;
16775;SDS011;8505;49.456;8.164;2023-09-19T05:23:57;7.53;;;2.10;;
16775;SDS011;8505;49.456;8.164;2023-09-19T05:26:25;8.43;;;1.90;;
16775;SDS011;8505;49.456;8.164;2023-09-19T05:28:54;5.90;;;1.90;;
16775;SDS011;8505;49.456;8.164;2023-09-19T05:31:22;5.35;;;1.77;;
16775;SDS011;8505;49.456;8.164;2023-09-19T05:33:50;7.93;;;1.90;;
16775;SDS011;8505;49.456;8.164;2023-09-19T05:36:20;6.30;;;1.70;;
16775;SDS011;8505;49.456;8.164;2023-09-19T05:38:48;11.45;;;2.20;;
16775;SDS011;8505;49.456;8.164;2023-09-19T05:41:20;8.48;;;2.22;;
16775;SDS011;8505;49.456;8.164;2023-09-19T05:43:48;7.72;;;2.05;;
16775;SDS011;8505;49.456;8.164;2023-09-19T05:46:18;4.95;;;1.80;;
16775;SDS011;8505;49.456;8.164;2023-09-19T05:48:46;7.70;;;2.10;;
16775;SDS011;8505;49.456;8.164;2023-09-19T05:51:16;6.10;;;2.00;;
16775;SDS011;8505;49.456;8.164;2023-09-19T05:53:44;7.75;;;2.30;;
16775;SDS011;8505;49.456;8.164;2023-09-19T05:56:14;7.97;;;2.30;;
16775;SDS011;8505;49.456;8.164;2023-09-19T05:58:45;6.25;;;2.00;;
16775;SDS011;8505;49.456;8.164;2023-09-19T06:01:12;5.90;;;2.08;;
16775;SDS011;8505;49.456;8.164;2023-09-19T06:03:43;5.47;;;2.17;;
16775;SDS011;8505;49.456;8.164;2023-09-19T06:06:10;5.80;;;2.08;;
16775;SDS011;8505;49.456;8.164;2023-09-19T06:08:38;7.25;;;2.10;;
16775;SDS011;8505;49.456;8.164;2023-09-19T06:11:07;4.18;;;2.03;;
16775;SDS011;8505;49.456;8.164;2023-09-19T06:13:35;6.28;;;2.22;;
16775;SDS011;8505;49.456;8.164;2023-09-19T06:16:06;6.38;;;2.15;;
16775;SDS011;8505;49.456;8.164;2023-09-19T06:18:34;4.63;;;1.95;;
16775;SDS011;8505;49.456;8.164;2023-09-19T06:21:04;5.00;;;1.80;;
16775;SDS011;8505;49.456;8.164;2023-09-19T06:23:33;6.40;;;2.00;;
16775;SDS011;8505;49.456;8.164;2023-09-19T06:26:01;6.45;;;1.95;;
16775;SDS011;8505;49.456;8.164;2023-09-19T06:28:33;5.00;;;1.80;;
16775;SDS011;8505;49.456;8.164;2023-09-19T06:31:02;4.85;;;1.85;;
16775;SDS011;8505;49.456;8.164;2023-09-19T06:33:34;6.97;;;1.90;;
16775;SDS011;8505;49.456;8.164;2023-09-19T06:36:07;7.57;;;1.90;;
16775;SDS011;8505;49.456;8.164;2023-09-19T06:38:35;5.03;;;1.77;;
16775;SDS011;8505;49.456;8.164;2023-09-19T06:41:03;5.72;;;1.80;;
16775;SDS011;8505;49.456;8.164;2023-09-19T06:43:33;6.60;;;1.80;;
16775;SDS011;8505;49.456;8.164;2023-09-19T06:46:01;5.97;;;1.90;;
16775;SDS011;8505;49.456;8.164;2023-09-19T06:48:30;7.80;;;1.90;;
16775;SDS011;8505;49.456;8.164;2023-09-19T06:50:59;5.67;;;2.13;;
16775;SDS011;8505;49.456;8.164;2023-09-19T06:53:32;7.25;;;1.90;;
16775;SDS011;8505;49.456;8.164;2023-09-19T06:56:02;4.30;;;2.00;;
16775;SDS011;8505;49.456;8.164;2023-09-19T06:58:30;6.18;;;2.47;;
16775;SDS011;8505;49.456;8.164;2023-09-19T07:00:58;8.35;;;4.57;;
16775;SDS011;8505;49.456;8.164;2023-09-19T07:03:26;6.68;;;2.83;;
16775;SDS011;8505;49.456;8.164;2023-09-19T07:05:55;8.90;;;3.10;;
16775;SDS011;8505;49.456;8.164;2023-09-19T07:08:25;9.20;;;4.03;;
16775;SDS011;8505;49.456;8.164;2023-09-19T07:10:54;9.23;;;5.10;;
16775;SDS011;8505;49.456;8.164;2023-09-19T07:13:24;6.25;;;3.10;;
16775;SDS011;8505;49.456;8.164;2023-09-19T07:15:52;8.00;;;3.50;;
16775;SDS011;8505;49.456;8.164;2023-09-19T07:18:20;8.63;;;3.40;;
16775;SDS011;8505;49.456;8.164;2023-09-19T07:20:48;7.78;;;4.10;;
16775;SDS011;8505;49.456;8.164;2023-09-19T07:23:16;9.18;;;3.88;;
16775;SDS011;8505;49.456;8.164;2023-09-19T07:25:45;8.25;;;3.50;;
16775;SDS011;8505;49.456;8.164;2023-09-19T07:28:14;7.90;;;3.33;;
16775;SDS011;8505;49.456;8.164;2023-09-19T07:30:43;5.93;;;3.25;;
16775;SDS011;8505;49.456;8.164;2023-09-19T07:33:10;6.72;;;2.92;;
16775;SDS011;8505;49.456;8.164;2023-09-19T07:35:38;6.25;;;2.90;;
16775;SDS011;8505;49.456;8.164;2023-09-19T07:38:07;6.25;;;2.90;;
16775;SDS011;8505;49.456;8.164;2023-09-19T07:40:37;5.38;;;2.60;;
16775;SDS011;8505;49.456;8.164;2023-09-19T07:43:05;6.88;;;3.22;;
16775;SDS011;8505;49.456;8.164;2023-09-19T07:45:36;6.88;;;2.95;;
16775;SDS011;8505;49.456;8.164;2023-09-19T07:48:04;6.82;;;2.97;;
16775;SDS011;8505;49.456;8.164;2023-09-19T07:50:39;6.73;;;2.70;;
16775;SDS011;8505;49.456;8.164;2023-09-19T07:53:09;6.93;;;2.58;;
16775;SDS011;8505;49.456;8.164;2023-09-19T07:55:40;4.97;;;2.40;;
16775;SDS011;8505;49.456;8.164;2023-09-19T07:58:09;4.60;;;2.60;;
16775;SDS011;8505;49.456;8.164;2023-09-19T08:00:38;7.32;;;2.58;;
16775;SDS011;8505;49.456;8.164;2023-09-19T08:03:05;6.40;;;2.67;;
16775;SDS011;8505;49.456;8.164;2023-09-19T08:05:43;5.90;;;2.72;;
16775;SDS011;8505;49.456;8.164;2023-09-19T08:08:12;7.45;;;2.90;;
16775;SDS011;8505;49.456;8.164;2023-09-19T08:10:40;5.45;;;2.67;;
16775;SDS011;8505;49.456;8.164;2023-09-19T08:13:09;6.80;;;2.80;;
16775;SDS011;8505;49.456;8.164;2023-09-19T08:15:43;6.85;;;2.65;;
16775;SDS011;8505;49.456;8.164;2023-09-19T08:18:12;8.13;;;2.53;;
16775;SDS011;8505;49.456;8.164;2023-09-19T08:20:40;7.72;;;2.50;;
16775;SDS011;8505;49.456;8.164;2023-09-19T08:23:08;5.65;;;2.33;;
16775;SDS011;8505;49.456;8.164;2023-09-19T08:25:36;6.65;;;2.60;;
16775;SDS011;8505;49.456;8.164;2023-09-19T08:28:05;7.43;;;2.85;;
16775;SDS011;8505;49.456;8.164;2023-09-19T08:30:38;5.63;;;2.50;;
16775;SDS011;8505;49.456;8.164;2023-09-19T08:33:08;5.35;;;2.40;;
16775;SDS011;8505;49.456;8.164;2023-09-19T08:35:37;6.75;;;2.55;;
16775;SDS011;8505;49.456;8.164;2023-09-19T08:38:06;7.43;;;2.38;;
16775;SDS011;8505;49.456;8.164;2023-09-19T08:40:36;6.40;;;2.40;;
16775;SDS011;8505;49.456;8.164;2023-09-19T08:43:06;7.67;;;2.43;;
16775;SDS011;8505;49.456;8.164;2023-09-19T08:45:34;5.93;;;2.27;;
16775;SDS011;8505;49.456;8.164;2023-09-19T08:48:08;7.22;;;2.40;;
16775;SDS011;8505;49.456;8.164;2023-09-19T08:50:47;6.97;;;2.30;;
16775;SDS011;8505;49.456;8.164;2023-09-19T08:53:20;7.47;;;2.40;;
16775;SDS011;8505;49.456;8.164;2023-09-19T08:55:54;6.43;;;2.20;;
16775;SDS011;8505;49.456;8.164;2023-09-19T08:58:25;5.57;;;2.10;;
16775;SDS011;8505;49.456;8.164;2023-09-19T09:00:56;4.22;;;1.92;;
16775;SDS011;8505;49.456;8.164;2023-09-19T09:03:32;7.25;;;1.90;;
16775;SDS011;8505;49.456;8.164;2023-09-19T09:06:01;6.43;;;2.10;;
16775;SDS011;8505;49.456;8.164;2023-09-19T09:08:30;7.95;;;1.80;;
16775;SDS011;8505;49.456;8.164;2023-09-19T09:11:00;7.80;;;2.03;;
16775;SDS011;8505;49.456;8.164;2023-09-19T09:13:28;7.70;;;2.40;;
16775;SDS011;8505;49.456;8.164;2023-09-19T09:15:57;8.57;;;2.30;;
16775;SDS011;8505;49.456;8.164;2023-09-19T09:18:25;6.03;;;2.07;;
16775;SDS011;8505;49.456;8.164;2023-09-19T09:20:54;6.18;;;2.35;;
16775;SDS011;8505;49.456;8.164;2023-09-19T09:23:22;7.05;;;2.13;;
16775;SDS011;8505;49.456;8.164;2023-09-19T09:25:52;5.32;;;1.90;;
16775;SDS011;8505;49.456;8.164;2023-09-19T09:28:29;6.70;;;1.95;;
16775;SDS011;8505;49.456;8.164;2023-09-19T09:31:00;8.05;;;1.50;;
16775;SDS011;8505;49.456;8.164;2023-09-19T09:33:29;5.00;;;1.88;;
16775;SDS011;8505;49.456;8.164;2023-09-19T09:35:59;6.47;;;1.70;;
16775;SDS011;8505;49.456;8.164;2023-09-19T09:38:29;8.55;;;1.92;;
16775;SDS011;8505;49.456;8.164;2023-09-19T09:41:10;9.73;;;2.10;;
16775;SDS011;8505;49.456;8.164;2023-09-19T09:43:42;8.18;;;1.90;;
16775;SDS011;8505;49.456;8.164;2023-09-19T09:46:13;5.07;;;1.75;;
16775;SDS011;8505;49.456;8.164;2023-09-19T09:49:00;6.20;;;2.10;;
16775;SDS011;8505;49.456;8.164;2023-09-19T09:52:01;6.85;;;2.03;;
16775;SDS011;8505;49.456;8.164;2023-09-19T09:54:37;6.82;;;1.77;;
16775;SDS011;8505;49.456;8.164;2023-09-19T09:57:08;6.78;;;1.80;;
16775;SDS011;8505;49.456;8.164;2023-09-19T09:59:47;5.93;;;1.95;;
16775;SDS011;8505;49.456;8.164;2023-09-19T10:02:20;5.33;;;1.70;;
16775;SDS011;8505;49.456;8.164;2023-09-19T10:04:56;5.45;;;1.65;;
16775;SDS011;8505;49.456;8.164;2023-09-19T10:07:37;6.93;;;1.73;;
16775;SDS011;8505;49.456;8.164;2023-09-19T10:10:10;6.50;;;1.77;;
16775;SDS011;8505;49.456;8.164;2023-09-19T10:12:43;6.43;;;1.63;;
16775;SDS011;8505;49.456;8.164;2023-09-19T10:15:16;4.70;;;1.63;;
16775;SDS011;8505;49.456;8.164;2023-09-19T10:17:47;7.60;;;1.75;;
16775;SDS011;8505;49.456;8.164;2023-09-19T10:20:15;3.85;;;1.50;;
16775;SDS011;8505;49.456;8.164;2023-09-19T10:23:03;8.85;;;1.98;;
16775;SDS011;8505;49.456;8.164;2023-09-19T10:25:37;5.85;;;1.60;;
16775;SDS011;8505;49.456;8.164;2023-09-19T10:28:06;3.73;;;1.40;;
16775;SDS011;8505;49.456;8.164;2023-09-19T10:30:40;3.47;;;1.60;;
16775;SDS011;8505;49.456;8.164;2023-09-19T10:33:11;5.57;;;1.77;;
16775;SDS011;8505;49.456;8.164;2023-09-19T10:35:41;3.95;;;1.38;;
16775;SDS011;8505;49.456;8.164;2023-09-19T10:38:13;7.67;;;1.40;;
16775;SDS011;8505;49.456;8.164;2023-09-19T10:40:45;4.32;;;1.60;;
16775;SDS011;8505;49.456;8.164;2023-09-19T10:43:18;3.67;;;1.23;;
16775;SDS011;8505;49.456;8.164;2023-09-19T10:45:48;5.03;;;1.50;;
16775;SDS011;8505;49.456;8.164;2023-09-19T10:48:19;5.00;;;1.40;;
16775;SDS011;8505;49.456;8.164;2023-09-19T10:50:53;6.07;;;1.30;;
16775;SDS011;8505;49.456;8.164;2023-09-19T10:53:27;4.67;;;1.30;;
16775;SDS011;8505;49.456;8.164;2023-09-19T10:56:06;4.07;;;1.30;;
16775;SDS011;8505;49.456;8.164;2023-09-19T10:58:41;6.65;;;1.40;;
16775;SDS011;8505;49.456;8.164;2023-09-19T11:01:11;3.80;;;1.10;;
16775;SDS011;8505;49.456;8.164;2023-09-19T11:03:41;5.57;;;1.52;;
16775;SDS011;8505;49.456;8.164;2023-09-19T11:06:14;5.25;;;1.23;;
16775;SDS011;8505;49.456;8.164;2023-09-19T11:11:49;5.37;;;1.40;;
16775;SDS011;8505;49.456;8.164;2023-09-19T11:14:29;4.45;;;1.30;;
16775;SDS011;8505;49.456;8.164;2023-09-19T11:20:20;5.90;;;1.38;;
16775;SDS011;8505;49.456;8.164;2023-09-19T11:25:53;3.47;;;1.25;;
16775;SDS011;8505;49.456;8.164;2023-09-19T11:28:31;3.85;;;1.40;;
16775;SDS011;8505;49.456;8.164;2023-09-19T11:31:40;3.75;;;1.27;;
16775;SDS011;8505;49.456;8.164;2023-09-19T11:40:34;4.20;;;1.10;;
16775;SDS011;8505;49.456;8.164;2023-09-19T11:46:07;6.67;;;1.30;;
16775;SDS011;8505;49.456;8.164;2023-09-19T11:48:35;6.50;;;1.50;;
16775;SDS011;8505;49.456;8.164;2023-09-19T11:51:13;4.30;;;1.30;;
16775;SDS011;8505;49.456;8.164;2023-09-19T11:53:55;5.32;;;1.23;;
16775;SDS011;8505;49.456;8.164;2023-09-19T11:56:26;3.95;;;1.30;;
16775;SDS011;8505;49.456;8.164;2023-09-19T11:58:55;4.20;;;1.25;;
16775;SDS011;8505;49.456;8.164;2023-09-19T12:01:25;4.03;;;1.23;;
16775;SDS011;8505;49.456;8.164;2023-09-19T12:03:59;3.15;;;1.20;;
16775;SDS011;8505;49.456;8.164;2023-09-19T12:06:30;3.78;;;1.15;;
16775;SDS011;8505;49.456;8.164;2023-09-19T12:08:58;3.80;;;1.30;;
16775;SDS011;8505;49.456;8.164;2023-09-19T12:11:28;3.30;;;1.33;;
16775;SDS011;8505;49.456;8.164;2023-09-19T12:14:01;4.30;;;1.10;;
16775;SDS011;8505;49.456;8.164;2023-09-19T12:16:30;3.45;;;1.10;;
16775;SDS011;8505;49.456;8.164;2023-09-19T12:18:59;3.53;;;1.20;;
16775;SDS011;8505;49.456;8.164;2023-09-19T12:21:55;3.67;;;1.30;;
16775;SDS011;8505;49.456;8.164;2023-09-19T12:24:26;3.23;;;1.10;;
16775;SDS011;8505;49.456;8.164;2023-09-19T12:27:00;3.13;;;1.25;;
16775;SDS011;8505;49.456;8.164;2023-09-19T12:29:31;3.97;;;1.20;;
16775;SDS011;8505;49.456;8.164;2023-09-19T12:32:02;5.43;;;1.20;;
16775;SDS011;8505;49.456;8.164;2023-09-19T12:34:32;3.42;;;1.20;;
16775;SDS011;8505;49.456;8.164;2023-09-19T12:37:07;4.30;;;1.20;;
16775;SDS011;8505;49.456;8.164;2023-09-19T12:39:39;4.00;;;1.03;;
16775;SDS011;8505;49.456;8.164;2023-09-19T12:42:08;2.88;;;1.27;;
16775;SDS011;8505;49.456;8.164;2023-09-19T12:44:40;4.00;;;1.30;;
16775;SDS011;8505;49.456;8.164;2023-09-19T12:47:11;5.10;;;1.27;;
16775;SDS011;8505;49.456;8.164;2023-09-19T12:52:47;3.00;;;1.20;;
16775;SDS011;8505;49.456;8.164;2023-09-19T12:55:20;4.47;;;1.25;;
16775;SDS011;8505;49.456;8.164;2023-09-19T12:57:56;3.30;;;1.07;;
16775;SDS011;8505;49.456;8.164;2023-09-19T13:00:35;3.67;;;1.10;;
16775;SDS011;8505;49.456;8.164;2023-09-19T13:03:13;4.28;;;1.10;;
16775;SDS011;8505;49.456;8.164;2023-09-19T13:05:49;4.00;;;1.25;;
16775;SDS011;8505;49.456;8.164;2023-09-19T13:08:20;3.92;;;1.10;;
16775;SDS011;8505;49.456;8.164;2023-09-19T13:11:01;4.15;;;1.30;;
16775;SDS011;8505;49.456;8.164;2023-09-19T13:13:33;4.00;;;1.30;;
16775;SDS011;8505;49.456;8.164;2023-09-19T13:16:03;3.08;;;1.20;;
16775;SDS011;8505;49.456;8.164;2023-09-19T13:18:45;5.00;;;1.10;;
16775;SDS011;8505;49.456;8.164;2023-09-19T13:21:17;4.30;;;1.40;;
16775;SDS011;8505;49.456;8.164;2023-09-19T13:23:56;3.47;;;1.30;;
16775;SDS011;8505;49.456;8.164;2023-09-19T13:26:47;4.88;;;1.20;;
16775;SDS011;8505;49.456;8.164;2023-09-19T13:29:15;3.43;;;1.17;;
16775;SDS011;8505;49.456;8.164;2023-09-19T13:31:45;2.92;;;0.98;;
16775;SDS011;8505;49.456;8.164;2023-09-19T13:34:14;4.93;;;1.00;;
16775;SDS011;8505;49.456;8.164;2023-09-19T13:36:43;4.47;;;1.10;;
16775;SDS011;8505;49.456;8.164;2023-09-19T13:39:13;4.30;;;1.20;;
16775;SDS011;8505;49.456;8.164;2023-09-19T13:41:42;3.95;;;1.10;;
16775;SDS011;8505;49.456;8.164;2023-09-19T13:44:11;2.60;;;1.13;;
16775;SDS011;8505;49.456;8.164;2023-09-19T13:46:40;3.47;;;1.00;;
16775;SDS011;8505;49.456;8.164;2023-09-19T13:49:12;3.28;;;1.00;;
16775;SDS011;8505;49.456;8.164;2023-09-19T13:51:40;2.70;;;1.13;;
16775;SDS011;8505;49.456;8.164;2023-09-19T13:54:10;3.85;;;1.20;;
16775;SDS011;8505;49.456;8.164;2023-09-19T13:56:40;2.25;;;1.10;;
16775;SDS011;8505;49.456;8.164;2023-09-19T13:59:08;2.22;;;1.10;;
16775;SDS011;8505;49.456;8.164;2023-09-19T14:01:36;2.88;;;1.08;;
16775;SDS011;8505;49.456;8.164;2023-09-19T14:04:04;3.92;;;1.10;;
16775;SDS011;8505;49.456;8.164;2023-09-19T14:06:32;3.58;;;1.17;;
16775;SDS011;8505;49.456;8.164;2023-09-19T14:08:59;3.45;;;1.00;;
16775;SDS011;8505;49.456;8.164;2023-09-19T14:11:27;2.90;;;1.20;;
16775;SDS011;8505;49.456;8.164;2023-09-19T14:13:56;3.45;;;0.90;;
16775;SDS011;8505;49.456;8.164;2023-09-19T14:16:25;3.10;;;1.00;;
16775;SDS011;8505;49.456;8.164;2023-09-19T14:18:56;3.33;;;1.08;;
16775;SDS011;8505;49.456;8.164;2023-09-19T14:21:24;2.30;;;0.85;;
16775;SDS011;8505;49.456;8.164;2023-09-19T14:23:51;3.63;;;1.00;;
16775;SDS011;8505;49.456;8.164;2023-09-19T14:26:20;3.72;;;0.88;;
16775;SDS011;8505;49.456;8.164;2023-09-19T14:28:49;2.42;;;1.20;;
16775;SDS011;8505;49.456;8.164;2023-09-19T14:31:18;3.33;;;1.00;;
16775;SDS011;8505;49.456;8.164;2023-09-19T14:33:52;3.90;;;0.95;;
16775;SDS011;8505;49.456;8.164;2023-09-19T14:36:21;3.45;;;1.00;;
16775;SDS011;8505;49.456;8.164;2023-09-19T14:38:51;3.60;;;0.90;;
16775;SDS011;8505;49.456;8.164;2023-09-19T14:41:21;3.10;;;1.10;;
16775;SDS011;8505;49.456;8.164;2023-09-19T14:43:49;5.18;;;1.05;;
16775;SDS011;8505;49.456;8.164;2023-09-19T14:46:18;2.17;;;1.02;;
16775;SDS011;8505;49.456;8.164;2023-09-19T14:48:46;3.50;;;0.85;;
16775;SDS011;8505;49.456;8.164;2023-09-19T14:51:14;2.53;;;1.10;;
16775;SDS011;8505;49.456;8.164;2023-09-19T14:53:42;2.45;;;0.82;;
16775;SDS011;8505;49.456;8.164;2023-09-19T14:56:10;2.75;;;0.98;;
16775;SDS011;8505;49.456;8.164;2023-09-19T14:58:39;4.50;;;1.08;;
16775;SDS011;8505;49.456;8.164;2023-09-19T15:01:09;4.07;;;1.17;;
16775;SDS011;8505;49.456;8.164;2023-09-19T15:03:39;2.83;;;0.98;;
16775;SDS011;8505;49.456;8.164;2023-09-19T15:06:09;3.23;;;1.00;;
16775;SDS011;8505;49.456;8.164;2023-09-19T15:08:41;2.83;;;0.93;;
16775;SDS011;8505;49.456;8.164;2023-09-19T15:11:12;2.85;;;0.90;;
16775;SDS011;8505;49.456;8.164;2023-09-19T15:13:42;4.38;;;0.90;;
16775;SDS011;8505;49.456;8.164;2023-09-19T15:16:11;2.10;;;0.80;;
16775;SDS011;8505;49.456;8.164;2023-09-19T15:18:41;2.55;;;0.90;;
16775;SDS011;8505;49.456;8.164;2023-09-19T15:21:11;2.85;;;1.08;;
16775;SDS011;8505;49.456;8.164;2023-09-19T15:23:41;2.97;;;0.95;;
16775;SDS011;8505;49.456;8.164;2023-09-19T15:26:10;3.67;;;0.90;;
16775;SDS011;8505;49.456;8.164;2023-09-19T15:28:39;2.60;;;0.95;;
16775;SDS011;8505;49.456;8.164;2023-09-19T15:31:08;2.30;;;1.00;;
16775;SDS011;8505;49.456;8.164;2023-09-19T15:33:37;3.92;;;0.98;;
16775;SDS011;8505;49.456;8.164;2023-09-19T15:36:06;1.98;;;0.93;;
16775;SDS011;8505;49.456;8.164;2023-09-19T15:38:55;3.38;;;1.10;;
16775;SDS011;8505;49.456;8.164;2023-09-19T15:41:24;2.75;;;1.00;;
16775;SDS011;8505;49.456;8.164;2023-09-19T15:43:52;3.22;;;1.05;;